Riegelwood, North Carolina
Current Conditions -  °F | °C
As of 7:53 AM on Thursday 23 Oct 2014 (Local Time) from KILM Reporting Station
Clear Clear  
Wind Chill: 44°   Ceiling: Unl
Heat Index: 47°   Visibility: 10mi
Dew Point: 42°   Wind: 6mph
Humidity: 83%   Direction: 320°NW
Pressure: 30.01"   Gusts: NA
Location:  34.34°N, 78.23°W
Report Text: KILM 231153Z 32005KT 10SM CLR 08/06 A3001 RMK AO2 SLP160 T00830056 10111 20083 53004
Loading
Personal Weather Stations






























Interactive Weather Map
Tropical Storm Tracking
New forecast layout! Learn more

10-Day Weather Forecast

Advertisements
Track Severe Weather on mobile